sensor_id;sensor_type;location;lat;lon;timestamp;pressure;altitude;pressure_sealevel;temperature;humidity
58785;BME280;44557;51.862;19.378;2022-12-07T00:00:15;98667.22;;;2.89;92.53
58785;BME280;44557;51.862;19.378;2022-12-07T00:01:38;98667.36;;;2.79;92.43
58785;BME280;44557;51.862;19.378;2022-12-07T00:02:40;98668.02;;;2.79;92.52
58785;BME280;44557;51.862;19.378;2022-12-07T00:03:43;98663.13;;;2.79;92.77
58785;BME280;44557;51.862;19.378;2022-12-07T00:04:45;98662.52;;;2.83;92.81
58785;BME280;44557;51.862;19.378;2022-12-07T00:05:47;98661.36;;;2.93;91.92
58785;BME280;44557;51.862;19.378;2022-12-07T00:06:52;98660.56;;;2.89;92.21
58785;BME280;44557;51.862;19.378;2022-12-07T00:07:54;98658.78;;;2.80;92.20
58785;BME280;44557;51.862;19.378;2022-12-07T00:08:55;98656.48;;;2.89;92.09
58785;BME280;44557;51.862;19.378;2022-12-07T00:09:57;98655.66;;;2.89;92.14
58785;BME280;44557;51.862;19.378;2022-12-07T00:11:07;98657.17;;;2.99;91.66
58785;BME280;44557;51.862;19.378;2022-12-07T00:12:08;98651.34;;;2.88;91.94
58785;BME280;44557;51.862;19.378;2022-12-07T00:13:10;98655.76;;;2.86;92.15
58785;BME280;44557;51.862;19.378;2022-12-07T00:14:14;98654.45;;;2.90;92.02
58785;BME280;44557;51.862;19.378;2022-12-07T00:15:16;98655.90;;;2.91;91.84
58785;BME280;44557;51.862;19.378;2022-12-07T00:16:20;98652.42;;;2.94;91.88
58785;BME280;44557;51.862;19.378;2022-12-07T00:17:22;98654.77;;;2.92;91.75
58785;BME280;44557;51.862;19.378;2022-12-07T00:18:23;98655.30;;;2.85;92.03
58785;BME280;44557;51.862;19.378;2022-12-07T00:19:25;98657.77;;;2.74;92.65
58785;BME280;44557;51.862;19.378;2022-12-07T00:20:26;98657.95;;;2.75;92.78
58785;BME280;44557;51.862;19.378;2022-12-07T00:21:34;98655.00;;;2.69;93.21
58785;BME280;44557;51.862;19.378;2022-12-07T00:22:36;98652.19;;;2.73;92.81
58785;BME280;44557;51.862;19.378;2022-12-07T00:23:38;98656.25;;;2.73;93.28
58785;BME280;44557;51.862;19.378;2022-12-07T00:24:40;98654.70;;;2.82;92.70
58785;BME280;44557;51.862;19.378;2022-12-07T00:25:41;98655.63;;;2.76;92.91
58785;BME280;44557;51.862;19.378;2022-12-07T00:26:43;98656.48;;;2.83;92.74
58785;BME280;44557;51.862;19.378;2022-12-07T00:27:45;98660.11;;;2.77;92.58
58785;BME280;44557;51.862;19.378;2022-12-07T00:28:49;98657.01;;;2.71;93.19
58785;BME280;44557;51.862;19.378;2022-12-07T00:29:51;98657.66;;;2.78;92.89
58785;BME280;44557;51.862;19.378;2022-12-07T00:31:00;98653.17;;;2.78;92.81
58785;BME280;44557;51.862;19.378;2022-12-07T00:32:02;98655.23;;;2.82;92.61
58785;BME280;44557;51.862;19.378;2022-12-07T00:33:04;98656.23;;;2.80;92.60
58785;BME280;44557;51.862;19.378;2022-12-07T00:34:06;98656.33;;;2.82;92.77
58785;BME280;44557;51.862;19.378;2022-12-07T00:35:08;98657.85;;;2.85;92.50
58785;BME280;44557;51.862;19.378;2022-12-07T00:36:13;98657.65;;;2.84;92.06
58785;BME280;44557;51.862;19.378;2022-12-07T00:37:15;98660.49;;;2.83;92.28
58785;BME280;44557;51.862;19.378;2022-12-07T00:38:16;98654.22;;;2.78;92.84
58785;BME280;44557;51.862;19.378;2022-12-07T00:39:18;98657.11;;;2.84;92.59
58785;BME280;44557;51.862;19.378;2022-12-07T00:40:19;98656.58;;;2.85;92.02
58785;BME280;44557;51.862;19.378;2022-12-07T00:41:23;98660.05;;;2.84;92.32
58785;BME280;44557;51.862;19.378;2022-12-07T00:42:25;98654.38;;;2.75;92.72
58785;BME280;44557;51.862;19.378;2022-12-07T00:43:27;98652.46;;;2.75;92.93
58785;BME280;44557;51.862;19.378;2022-12-07T00:44:29;98655.94;;;2.79;92.54
58785;BME280;44557;51.862;19.378;2022-12-07T00:45:30;98655.65;;;2.80;92.39
58785;BME280;44557;51.862;19.378;2022-12-07T00:46:32;98654.63;;;2.81;92.03
58785;BME280;44557;51.862;19.378;2022-12-07T00:47:33;98655.30;;;2.80;92.14
58785;BME280;44557;51.862;19.378;2022-12-07T00:48:35;98658.12;;;2.75;92.34
58785;BME280;44557;51.862;19.378;2022-12-07T00:49:37;98654.15;;;2.81;92.46
58785;BME280;44557;51.862;19.378;2022-12-07T00:50:39;98652.44;;;2.76;92.56
58785;BME280;44557;51.862;19.378;2022-12-07T00:51:40;98650.98;;;2.75;92.34
58785;BME280;44557;51.862;19.378;2022-12-07T00:52:42;98652.89;;;2.77;92.03
58785;BME280;44557;51.862;19.378;2022-12-07T00:53:44;98652.45;;;2.69;92.81
58785;BME280;44557;51.862;19.378;2022-12-07T00:54:45;98654.79;;;2.69;92.53
58785;BME280;44557;51.862;19.378;2022-12-07T00:55:47;98649.80;;;2.69;92.68
58785;BME280;44557;51.862;19.378;2022-12-07T00:56:48;98653.52;;;2.65;93.13
58785;BME280;44557;51.862;19.378;2022-12-07T00:57:50;98652.60;;;2.61;93.17
58785;BME280;44557;51.862;19.378;2022-12-07T00:58:53;98647.49;;;2.61;93.28
58785;BME280;44557;51.862;19.378;2022-12-07T00:59:55;98649.23;;;2.65;93.15
58785;BME280;44557;51.862;19.378;2022-12-07T01:01:02;98646.05;;;2.70;92.91
58785;BME280;44557;51.862;19.378;2022-12-07T01:02:04;98648.80;;;2.67;92.86
58785;BME280;44557;51.862;19.378;2022-12-07T01:03:08;98650.47;;;2.57;93.13
58785;BME280;44557;51.862;19.378;2022-12-07T01:04:11;98645.65;;;2.65;93.00
58785;BME280;44557;51.862;19.378;2022-12-07T01:05:13;98648.86;;;2.65;93.05
58785;BME280;44557;51.862;19.378;2022-12-07T01:06:16;98647.23;;;2.62;93.33
58785;BME280;44557;51.862;19.378;2022-12-07T01:07:17;98650.69;;;2.68;93.12
58785;BME280;44557;51.862;19.378;2022-12-07T01:08:20;98647.73;;;2.66;93.24
58785;BME280;44557;51.862;19.378;2022-12-07T01:09:23;98650.13;;;2.69;93.13
58785;BME280;44557;51.862;19.378;2022-12-07T01:10:25;98646.70;;;2.62;93.26
58785;BME280;44557;51.862;19.378;2022-12-07T01:11:28;98648.79;;;2.66;93.33
58785;BME280;44557;51.862;19.378;2022-12-07T01:12:30;98646.80;;;2.56;93.58
58785;BME280;44557;51.862;19.378;2022-12-07T01:13:34;98644.30;;;2.62;93.55
58785;BME280;44557;51.862;19.378;2022-12-07T01:14:36;98643.83;;;2.66;93.33
58785;BME280;44557;51.862;19.378;2022-12-07T01:15:44;98639.23;;;2.67;93.14
58785;BME280;44557;51.862;19.378;2022-12-07T01:16:45;98641.48;;;2.64;93.56
58785;BME280;44557;51.862;19.378;2022-12-07T01:17:47;98641.48;;;2.67;93.52
58785;BME280;44557;51.862;19.378;2022-12-07T01:18:51;98637.71;;;2.67;93.49
58785;BME280;44557;51.862;19.378;2022-12-07T01:19:52;98634.48;;;2.63;93.30
58785;BME280;44557;51.862;19.378;2022-12-07T01:21:46;98636.33;;;2.62;93.57
58785;BME280;44557;51.862;19.378;2022-12-07T01:22:23;98636.20;;;2.58;93.67
58785;BME280;44557;51.862;19.378;2022-12-07T01:23:24;98633.06;;;2.58;93.63
58785;BME280;44557;51.862;19.378;2022-12-07T01:24:26;98637.66;;;2.61;93.48
58785;BME280;44557;51.862;19.378;2022-12-07T01:25:27;98634.62;;;2.58;93.80
58785;BME280;44557;51.862;19.378;2022-12-07T01:26:29;98633.61;;;2.61;93.81
58785;BME280;44557;51.862;19.378;2022-12-07T01:27:32;98634.09;;;2.60;93.91
58785;BME280;44557;51.862;19.378;2022-12-07T01:28:34;98631.77;;;2.59;93.78
58785;BME280;44557;51.862;19.378;2022-12-07T01:29:36;98635.30;;;2.61;93.49
58785;BME280;44557;51.862;19.378;2022-12-07T01:30:37;98629.13;;;2.62;93.76
58785;BME280;44557;51.862;19.378;2022-12-07T01:31:39;98630.13;;;2.63;93.40
58785;BME280;44557;51.862;19.378;2022-12-07T01:32:40;98632.70;;;2.65;93.64
58785;BME280;44557;51.862;19.378;2022-12-07T01:33:44;98630.06;;;2.56;93.86
58785;BME280;44557;51.862;19.378;2022-12-07T01:34:48;98632.29;;;2.56;94.07
58785;BME280;44557;51.862;19.378;2022-12-07T01:35:49;98630.52;;;2.51;93.91
58785;BME280;44557;51.862;19.378;2022-12-07T01:36:51;98633.74;;;2.50;94.07
58785;BME280;44557;51.862;19.378;2022-12-07T01:37:52;98627.64;;;2.51;94.02
58785;BME280;44557;51.862;19.378;2022-12-07T01:38:57;98623.67;;;2.53;94.39
58785;BME280;44557;51.862;19.378;2022-12-07T01:39:59;98630.63;;;2.49;94.28
58785;BME280;44557;51.862;19.378;2022-12-07T01:41:01;98625.52;;;2.53;94.08
58785;BME280;44557;51.862;19.378;2022-12-07T01:42:03;98615.85;;;2.53;93.77
58785;BME280;44557;51.862;19.378;2022-12-07T01:43:15;98621.38;;;2.58;93.49
58785;BME280;44557;51.862;19.378;2022-12-07T01:44:27;98621.55;;;2.61;93.35
58785;BME280;44557;51.862;19.378;2022-12-07T01:45:39;98622.20;;;2.55;93.55
58785;BME280;44557;51.862;19.378;2022-12-07T01:46:45;98621.23;;;2.53;93.81
58785;BME280;44557;51.862;19.378;2022-12-07T01:47:55;98620.73;;;2.55;93.76
58785;BME280;44557;51.862;19.378;2022-12-07T01:48:58;98619.20;;;2.56;93.65
58785;BME280;44557;51.862;19.378;2022-12-07T01:50:00;98615.55;;;2.54;93.83
58785;BME280;44557;51.862;19.378;2022-12-07T01:51:06;98611.98;;;2.56;93.88
58785;BME280;44557;51.862;19.378;2022-12-07T01:53:25;98610.67;;;2.53;94.03
58785;BME280;44557;51.862;19.378;2022-12-07T01:54:28;98609.94;;;2.52;93.99
58785;BME280;44557;51.862;19.378;2022-12-07T01:55:30;98604.91;;;2.53;94.10
58785;BME280;44557;51.862;19.378;2022-12-07T01:56:33;98606.16;;;2.49;94.48
58785;BME280;44557;51.862;19.378;2022-12-07T01:57:40;98601.08;;;2.46;94.20
58785;BME280;44557;51.862;19.378;2022-12-07T01:58:43;98604.10;;;2.49;94.12
58785;BME280;44557;51.862;19.378;2022-12-07T01:59:49;98603.77;;;2.53;94.05
58785;BME280;44557;51.862;19.378;2022-12-07T02:00:52;98606.27;;;2.60;93.65
58785;BME280;44557;51.862;19.378;2022-12-07T02:01:55;98604.59;;;2.55;93.77
58785;BME280;44557;51.862;19.378;2022-12-07T02:03:05;98602.13;;;2.52;93.70
58785;BME280;44557;51.862;19.378;2022-12-07T02:04:08;98603.79;;;2.46;94.13
58785;BME280;44557;51.862;19.378;2022-12-07T02:05:10;98600.90;;;2.49;94.03
58785;BME280;44557;51.862;19.378;2022-12-07T02:06:16;98602.91;;;2.55;93.42
58785;BME280;44557;51.862;19.378;2022-12-07T02:07:20;98600.93;;;2.50;93.72
58785;BME280;44557;51.862;19.378;2022-12-07T02:08:23;98598.34;;;2.47;93.51
58785;BME280;44557;51.862;19.378;2022-12-07T02:09:25;98599.39;;;2.48;93.80
58785;BME280;44557;51.862;19.378;2022-12-07T02:10:29;98599.29;;;2.54;93.64
58785;BME280;44557;51.862;19.378;2022-12-07T02:11:31;98598.58;;;2.58;93.60
58785;BME280;44557;51.862;19.378;2022-12-07T02:12:32;98597.98;;;2.59;93.34
58785;BME280;44557;51.862;19.378;2022-12-07T02:13:36;98595.63;;;2.49;93.76
58785;BME280;44557;51.862;19.378;2022-12-07T02:14:38;98600.20;;;2.49;94.33
58785;BME280;44557;51.862;19.378;2022-12-07T02:15:59;98595.70;;;2.50;94.48
58785;BME280;44557;51.862;19.378;2022-12-07T02:17:16;98596.45;;;2.50;94.32
58785;BME280;44557;51.862;19.378;2022-12-07T02:18:30;98599.02;;;2.48;94.48
58785;BME280;44557;51.862;19.378;2022-12-07T02:20:20;98597.61;;;2.48;94.37
58785;BME280;44557;51.862;19.378;2022-12-07T02:21:04;98594.52;;;2.50;94.18
58785;BME280;44557;51.862;19.378;2022-12-07T02:23:40;98591.95;;;2.48;94.00
58785;BME280;44557;51.862;19.378;2022-12-07T02:28:01;98591.88;;;2.42;94.33
58785;BME280;44557;51.862;19.378;2022-12-07T02:30:27;98593.12;;;2.49;94.27
58785;BME280;44557;51.862;19.378;2022-12-07T02:31:32;98591.39;;;2.47;94.72
58785;BME280;44557;51.862;19.378;2022-12-07T02:32:48;98592.41;;;2.45;94.30
58785;BME280;44557;51.862;19.378;2022-12-07T02:34:01;98592.63;;;2.45;94.31
58785;BME280;44557;51.862;19.378;2022-12-07T02:35:21;98586.96;;;2.45;94.10
58785;BME280;44557;51.862;19.378;2022-12-07T02:36:28;98587.15;;;2.44;94.23
58785;BME280;44557;51.862;19.378;2022-12-07T02:39:01;98589.14;;;2.44;93.78
58785;BME280;44557;51.862;19.378;2022-12-07T02:40:13;98589.84;;;2.42;94.01
58785;BME280;44557;51.862;19.378;2022-12-07T02:41:23;98586.15;;;2.41;93.67
58785;BME280;44557;51.862;19.378;2022-12-07T02:42:32;98585.94;;;2.39;93.87
58785;BME280;44557;51.862;19.378;2022-12-07T02:43:45;98582.55;;;2.42;93.69
58785;BME280;44557;51.862;19.378;2022-12-07T02:44:47;98584.43;;;2.43;93.62
58785;BME280;44557;51.862;19.378;2022-12-07T02:45:52;98583.77;;;2.43;93.59
58785;BME280;44557;51.862;19.378;2022-12-07T02:46:59;98583.10;;;2.38;93.64
58785;BME280;44557;51.862;19.378;2022-12-07T02:48:03;98586.04;;;2.29;94.09
58785;BME280;44557;51.862;19.378;2022-12-07T02:49:07;98582.98;;;2.34;93.96
58785;BME280;44557;51.862;19.378;2022-12-07T02:50:10;98582.04;;;2.32;94.26
58785;BME280;44557;51.862;19.378;2022-12-07T02:51:12;98583.23;;;2.33;94.24
58785;BME280;44557;51.862;19.378;2022-12-07T02:52:13;98579.49;;;2.28;93.98
58785;BME280;44557;51.862;19.378;2022-12-07T02:53:36;98579.86;;;2.30;94.25
58785;BME280;44557;51.862;19.378;2022-12-07T02:54:38;98574.27;;;2.30;94.28
58785;BME280;44557;51.862;19.378;2022-12-07T02:55:40;98578.23;;;2.31;94.21
58785;BME280;44557;51.862;19.378;2022-12-07T02:58:00;98567.27;;;2.32;94.02
58785;BME280;44557;51.862;19.378;2022-12-07T03:00:22;98569.42;;;2.22;94.05
58785;BME280;44557;51.862;19.378;2022-12-07T03:03:04;98572.89;;;2.21;94.68
58785;BME280;44557;51.862;19.378;2022-12-07T03:07:00;98571.63;;;2.27;94.87
58785;BME280;44557;51.862;19.378;2022-12-07T03:08:26;98571.41;;;2.28;94.69
58785;BME280;44557;51.862;19.378;2022-12-07T03:09:42;98570.61;;;2.29;94.41
58785;BME280;44557;51.862;19.378;2022-12-07T03:10:58;98576.08;;;2.31;94.49
58785;BME280;44557;51.862;19.378;2022-12-07T03:13:59;98569.27;;;2.32;94.52
58785;BME280;44557;51.862;19.378;2022-12-07T03:16:57;98571.98;;;2.33;94.45
58785;BME280;44557;51.862;19.378;2022-12-07T03:18:04;98570.96;;;2.30;94.40
58785;BME280;44557;51.862;19.378;2022-12-07T03:19:15;98573.05;;;2.31;94.78
58785;BME280;44557;51.862;19.378;2022-12-07T03:20:21;98571.29;;;2.32;94.70
58785;BME280;44557;51.862;19.378;2022-12-07T03:21:31;98569.16;;;2.32;94.83
58785;BME280;44557;51.862;19.378;2022-12-07T03:22:35;98567.34;;;2.33;94.74
58785;BME280;44557;51.862;19.378;2022-12-07T03:23:42;98566.96;;;2.33;94.42
58785;BME280;44557;51.862;19.378;2022-12-07T03:25:10;98570.84;;;2.30;94.49
58785;BME280;44557;51.862;19.378;2022-12-07T03:26:14;98565.01;;;2.31;94.33
58785;BME280;44557;51.862;19.378;2022-12-07T03:27:22;98567.77;;;2.30;94.39
58785;BME280;44557;51.862;19.378;2022-12-07T03:28:31;98561.56;;;2.24;94.76
58785;BME280;44557;51.862;19.378;2022-12-07T03:31:19;98562.42;;;2.22;94.75
58785;BME280;44557;51.862;19.378;2022-12-07T03:32:28;98560.73;;;2.24;94.80
58785;BME280;44557;51.862;19.378;2022-12-07T03:35:19;98559.26;;;2.30;94.52
58785;BME280;44557;51.862;19.378;2022-12-07T03:40:23;98554.40;;;2.21;94.66
58785;BME280;44557;51.862;19.378;2022-12-07T03:41:31;98554.85;;;2.17;94.47
58785;BME280;44557;51.862;19.378;2022-12-07T03:42:35;98549.92;;;2.22;94.61
58785;BME280;44557;51.862;19.378;2022-12-07T03:43:37;98548.15;;;2.19;94.56
58785;BME280;44557;51.862;19.378;2022-12-07T03:44:40;98547.81;;;2.22;94.25
58785;BME280;44557;51.862;19.378;2022-12-07T03:47:05;98545.89;;;2.22;94.50
58785;BME280;44557;51.862;19.378;2022-12-07T03:48:16;98546.59;;;2.21;94.37
58785;BME280;44557;51.862;19.378;2022-12-07T03:49:37;98545.69;;;2.22;94.39
58785;BME280;44557;51.862;19.378;2022-12-07T03:50:50;98541.81;;;2.23;94.70
58785;BME280;44557;51.862;19.378;2022-12-07T03:53:33;98542.27;;;2.24;94.52
58785;BME280;44557;51.862;19.378;2022-12-07T03:54:40;98548.27;;;2.25;94.58
58785;BME280;44557;51.862;19.378;2022-12-07T03:55:44;98544.56;;;2.25;94.65
58785;BME280;44557;51.862;19.378;2022-12-07T03:56:48;98543.83;;;2.18;94.45
58785;BME280;44557;51.862;19.378;2022-12-07T03:57:54;98546.11;;;2.19;94.44
58785;BME280;44557;51.862;19.378;2022-12-07T03:58:56;98546.55;;;2.18;94.32
58785;BME280;44557;51.862;19.378;2022-12-07T03:59:58;98545.27;;;2.19;94.31
58785;BME280;44557;51.862;19.378;2022-12-07T04:01:01;98547.02;;;2.21;94.26
58785;BME280;44557;51.862;19.378;2022-12-07T04:02:06;98544.02;;;2.22;94.28
58785;BME280;44557;51.862;19.378;2022-12-07T04:03:08;98543.09;;;2.19;94.11
58785;BME280;44557;51.862;19.378;2022-12-07T04:04:10;98543.11;;;2.16;93.90
58785;BME280;44557;51.862;19.378;2022-12-07T04:05:12;98543.46;;;2.16;94.32
58785;BME280;44557;51.862;19.378;2022-12-07T04:06:14;98543.55;;;2.20;94.02
58785;BME280;44557;51.862;19.378;2022-12-07T04:07:16;98542.50;;;2.19;94.23
58785;BME280;44557;51.862;19.378;2022-12-07T04:08:17;98544.69;;;2.23;94.15
58785;BME280;44557;51.862;19.378;2022-12-07T04:09:19;98541.71;;;2.18;94.17
58785;BME280;44557;51.862;19.378;2022-12-07T04:10:21;98540.61;;;2.19;94.18
58785;BME280;44557;51.862;19.378;2022-12-07T04:11:22;98542.17;;;2.21;94.11
58785;BME280;44557;51.862;19.378;2022-12-07T04:12:24;98542.02;;;2.19;94.08
58785;BME280;44557;51.862;19.378;2022-12-07T04:13:26;98544.16;;;2.20;93.98
58785;BME280;44557;51.862;19.378;2022-12-07T04:14:27;98542.71;;;2.25;93.59
58785;BME280;44557;51.862;19.378;2022-12-07T04:15:29;98543.88;;;2.21;93.57
58785;BME280;44557;51.862;19.378;2022-12-07T04:16:30;98542.27;;;2.24;93.52
58785;BME280;44557;51.862;19.378;2022-12-07T04:17:32;98540.59;;;2.13;93.86
58785;BME280;44557;51.862;19.378;2022-12-07T04:18:33;98545.41;;;2.14;93.76
58785;BME280;44557;51.862;19.378;2022-12-07T04:19:35;98543.00;;;2.13;93.94
58785;BME280;44557;51.862;19.378;2022-12-07T04:20:36;98538.49;;;2.13;93.90
58785;BME280;44557;51.862;19.378;2022-12-07T04:21:38;98539.76;;;2.16;94.01
58785;BME280;44557;51.862;19.378;2022-12-07T04:22:40;98543.21;;;2.17;93.84
58785;BME280;44557;51.862;19.378;2022-12-07T04:23:42;98541.64;;;2.17;93.87
58785;BME280;44557;51.862;19.378;2022-12-07T04:24:43;98542.17;;;2.13;93.61
58785;BME280;44557;51.862;19.378;2022-12-07T04:25:48;98542.00;;;2.17;93.74
58785;BME280;44557;51.862;19.378;2022-12-07T04:26:50;98542.52;;;2.14;93.61
58785;BME280;44557;51.862;19.378;2022-12-07T04:27:51;98542.77;;;2.09;93.75
58785;BME280;44557;51.862;19.378;2022-12-07T04:28:53;98540.42;;;2.09;94.45
58785;BME280;44557;51.862;19.378;2022-12-07T04:29:54;98541.97;;;2.06;94.06
58785;BME280;44557;51.862;19.378;2022-12-07T04:30:57;98540.92;;;2.03;93.95
58785;BME280;44557;51.862;19.378;2022-12-07T04:31:58;98542.48;;;2.01;94.48
58785;BME280;44557;51.862;19.378;2022-12-07T04:33:00;98541.41;;;2.05;94.41
58785;BME280;44557;51.862;19.378;2022-12-07T04:34:02;98535.98;;;2.05;94.31
58785;BME280;44557;51.862;19.378;2022-12-07T04:35:05;98540.40;;;2.06;94.47
58785;BME280;44557;51.862;19.378;2022-12-07T04:36:06;98538.81;;;2.02;94.14
58785;BME280;44557;51.862;19.378;2022-12-07T04:37:08;98539.48;;;2.08;94.31
58785;BME280;44557;51.862;19.378;2022-12-07T04:38:10;98538.07;;;2.06;94.24
58785;BME280;44557;51.862;19.378;2022-12-07T04:39:28;98538.42;;;2.07;93.79
58785;BME280;44557;51.862;19.378;2022-12-07T04:40:30;98539.73;;;2.05;94.06
58785;BME280;44557;51.862;19.378;2022-12-07T04:41:32;98535.95;;;1.99;94.09
58785;BME280;44557;51.862;19.378;2022-12-07T04:42:33;98535.91;;;1.97;94.43
58785;BME280;44557;51.862;19.378;2022-12-07T04:43:35;98538.05;;;1.98;94.40
58785;BME280;44557;51.862;19.378;2022-12-07T04:44:37;98539.52;;;1.98;95.02
58785;BME280;44557;51.862;19.378;2022-12-07T04:45:39;98536.84;;;1.99;94.46
58785;BME280;44557;51.862;19.378;2022-12-07T04:46:41;98535.48;;;2.01;94.44
58785;BME280;44557;51.862;19.378;2022-12-07T04:47:43;98537.55;;;1.99;94.50
58785;BME280;44557;51.862;19.378;2022-12-07T04:48:44;98531.71;;;1.94;94.63
58785;BME280;44557;51.862;19.378;2022-12-07T04:49:46;98531.70;;;2.00;94.21
58785;BME280;44557;51.862;19.378;2022-12-07T04:50:48;98527.96;;;2.00;94.03
58785;BME280;44557;51.862;19.378;2022-12-07T04:51:53;98529.41;;;1.90;94.55
58785;BME280;44557;51.862;19.378;2022-12-07T04:52:55;98532.38;;;1.99;94.33
58785;BME280;44557;51.862;19.378;2022-12-07T04:53:57;98529.16;;;1.96;94.54
58785;BME280;44557;51.862;19.378;2022-12-07T04:54:58;98530.96;;;1.95;94.63
58785;BME280;44557;51.862;19.378;2022-12-07T04:56:00;98526.81;;;2.00;94.67
58785;BME280;44557;51.862;19.378;2022-12-07T04:57:02;98528.00;;;2.05;94.35
58785;BME280;44557;51.862;19.378;2022-12-07T04:58:03;98529.27;;;2.06;94.59
58785;BME280;44557;51.862;19.378;2022-12-07T04:59:05;98523.15;;;2.01;94.25
58785;BME280;44557;51.862;19.378;2022-12-07T05:00:08;98519.50;;;1.95;94.38
58785;BME280;44557;51.862;19.378;2022-12-07T05:01:09;98518.33;;;1.95;94.46
58785;BME280;44557;51.862;19.378;2022-12-07T05:02:11;98516.73;;;1.95;94.55
58785;BME280;44557;51.862;19.378;2022-12-07T05:03:13;98516.90;;;1.97;94.71
58785;BME280;44557;51.862;19.378;2022-12-07T05:04:14;98510.26;;;1.99;94.70
58785;BME280;44557;51.862;19.378;2022-12-07T05:05:17;98513.73;;;2.05;94.72
58785;BME280;44557;51.862;19.378;2022-12-07T05:06:19;98512.89;;;2.02;94.36
58785;BME280;44557;51.862;19.378;2022-12-07T05:07:21;98515.55;;;2.03;94.38
58785;BME280;44557;51.862;19.378;2022-12-07T05:08:22;98514.23;;;2.05;94.05
58785;BME280;44557;51.862;19.378;2022-12-07T05:09:24;98517.56;;;2.01;94.12
58785;BME280;44557;51.862;19.378;2022-12-07T05:10:25;98516.33;;;1.98;94.69
58785;BME280;44557;51.862;19.378;2022-12-07T05:11:27;98513.82;;;1.90;94.79
58785;BME280;44557;51.862;19.378;2022-12-07T05:12:41;98510.77;;;1.94;94.77
58785;BME280;44557;51.862;19.378;2022-12-07T05:13:42;98509.27;;;1.94;95.04
58785;BME280;44557;51.862;19.378;2022-12-07T05:14:44;98515.61;;;1.96;94.50
58785;BME280;44557;51.862;19.378;2022-12-07T05:15:48;98516.41;;;1.97;94.71
58785;BME280;44557;51.862;19.378;2022-12-07T05:16:50;98522.79;;;1.98;95.00
58785;BME280;44557;51.862;19.378;2022-12-07T05:17:52;98524.60;;;2.02;94.80
58785;BME280;44557;51.862;19.378;2022-12-07T05:18:54;98527.09;;;2.02;94.83
58785;BME280;44557;51.862;19.378;2022-12-07T05:19:56;98523.77;;;2.02;94.63
58785;BME280;44557;51.862;19.378;2022-12-07T05:20:58;98527.54;;;2.06;94.45
58785;BME280;44557;51.862;19.378;2022-12-07T05:21:59;98525.48;;;2.01;94.56
58785;BME280;44557;51.862;19.378;2022-12-07T05:23:01;98524.98;;;2.03;94.34
58785;BME280;44557;51.862;19.378;2022-12-07T05:24:03;98524.86;;;2.04;94.51
58785;BME280;44557;51.862;19.378;2022-12-07T05:25:05;98524.58;;;1.94;94.78
58785;BME280;44557;51.862;19.378;2022-12-07T05:26:07;98525.73;;;1.96;94.85
58785;BME280;44557;51.862;19.378;2022-12-07T05:27:08;98524.52;;;2.00;94.94
58785;BME280;44557;51.862;19.378;2022-12-07T05:28:10;98525.85;;;2.04;94.73
58785;BME280;44557;51.862;19.378;2022-12-07T05:29:16;98527.23;;;2.05;94.66
58785;BME280;44557;51.862;19.378;2022-12-07T05:30:18;98526.48;;;2.01;94.95
58785;BME280;44557;51.862;19.378;2022-12-07T05:31:19;98527.35;;;2.03;94.88
58785;BME280;44557;51.862;19.378;2022-12-07T05:32:21;98526.94;;;2.05;94.94
58785;BME280;44557;51.862;19.378;2022-12-07T05:33:23;98530.73;;;2.06;94.67
58785;BME280;44557;51.862;19.378;2022-12-07T05:34:24;98529.15;;;2.06;94.90
58785;BME280;44557;51.862;19.378;2022-12-07T05:35:26;98530.59;;;2.05;94.79
58785;BME280;44557;51.862;19.378;2022-12-07T05:36:28;98536.22;;;2.08;95.11
58785;BME280;44557;51.862;19.378;2022-12-07T05:37:30;98537.02;;;2.11;94.97
58785;BME280;44557;51.862;19.378;2022-12-07T05:38:32;98531.15;;;2.15;94.86
58785;BME280;44557;51.862;19.378;2022-12-07T05:39:34;98531.41;;;2.05;95.44
58785;BME280;44557;51.862;19.378;2022-12-07T05:40:36;98531.44;;;2.02;95.46
58785;BME280;44557;51.862;19.378;2022-12-07T05:41:38;98532.88;;;2.05;95.80
58785;BME280;44557;51.862;19.378;2022-12-07T05:42:58;98533.19;;;2.01;96.05
58785;BME280;44557;51.862;19.378;2022-12-07T05:44:00;98532.89;;;2.00;95.98
58785;BME280;44557;51.862;19.378;2022-12-07T05:45:01;98536.41;;;2.07;95.89
58785;BME280;44557;51.862;19.378;2022-12-07T05:46:03;98537.16;;;2.09;95.94
58785;BME280;44557;51.862;19.378;2022-12-07T05:47:05;98534.27;;;2.08;96.05
58785;BME280;44557;51.862;19.378;2022-12-07T05:48:07;98534.30;;;2.11;96.26
58785;BME280;44557;51.862;19.378;2022-12-07T05:49:08;98538.17;;;2.06;96.07
58785;BME280;44557;51.862;19.378;2022-12-07T05:50:10;98538.05;;;2.07;96.31
58785;BME280;44557;51.862;19.378;2022-12-07T05:51:12;98538.43;;;2.08;96.23
58785;BME280;44557;51.862;19.378;2022-12-07T05:52:13;98536.87;;;2.08;96.36
58785;BME280;44557;51.862;19.378;2022-12-07T05:53:15;98538.98;;;2.08;96.52
58785;BME280;44557;51.862;19.378;2022-12-07T05:54:17;98541.09;;;2.13;96.38
58785;BME280;44557;51.862;19.378;2022-12-07T05:55:19;98541.40;;;2.13;96.50
58785;BME280;44557;51.862;19.378;2022-12-07T05:56:20;98541.60;;;2.10;96.43
58785;BME280;44557;51.862;19.378;2022-12-07T05:57:22;98542.52;;;2.12;96.55
58785;BME280;44557;51.862;19.378;2022-12-07T05:58:23;98538.50;;;2.10;96.68
58785;BME280;44557;51.862;19.378;2022-12-07T05:59:44;98542.08;;;2.15;96.76
58785;BME280;44557;51.862;19.378;2022-12-07T06:00:45;98543.11;;;2.11;96.77
58785;BME280;44557;51.862;19.378;2022-12-07T06:01:47;98540.41;;;2.08;96.70
58785;BME280;44557;51.862;19.378;2022-12-07T06:02:48;98540.70;;;2.13;97.00
58785;BME280;44557;51.862;19.378;2022-12-07T06:03:50;98541.11;;;2.18;97.05
58785;BME280;44557;51.862;19.378;2022-12-07T06:04:51;98539.80;;;2.12;96.90
58785;BME280;44557;51.862;19.378;2022-12-07T06:05:53;98535.92;;;2.17;96.75
58785;BME280;44557;51.862;19.378;2022-12-07T06:06:55;98544.54;;;2.18;97.21
58785;BME280;44557;51.862;19.378;2022-12-07T06:07:57;98538.05;;;2.21;96.80
58785;BME280;44557;51.862;19.378;2022-12-07T06:08:58;98543.41;;;2.18;96.77